sensor_id;sensor_type;location;lat;lon;timestamp;temperature;humidity
13686;DHT22;6915;48.296;8.874;2022-10-22T00:01:51;12.20;99.90
13686;DHT22;6915;48.296;8.874;2022-10-22T00:04:17;12.20;99.90
13686;DHT22;6915;48.296;8.874;2022-10-22T00:06:44;12.20;99.90
13686;DHT22;6915;48.296;8.874;2022-10-22T00:09:12;12.10;99.90
13686;DHT22;6915;48.296;8.874;2022-10-22T00:11:40;12.20;99.90
13686;DHT22;6915;48.296;8.874;2022-10-22T00:14:07;12.20;99.90
13686;DHT22;6915;48.296;8.874;2022-10-22T00:16:34;12.10;99.90
13686;DHT22;6915;48.296;8.874;2022-10-22T00:19:02;12.20;99.90
13686;DHT22;6915;48.296;8.874;2022-10-22T00:21:29;12.10;99.90
13686;DHT22;6915;48.296;8.874;2022-10-22T00:23:56;12.10;99.90
13686;DHT22;6915;48.296;8.874;2022-10-22T00:26:23;12.10;99.90
13686;DHT22;6915;48.296;8.874;2022-10-22T00:28:50;12.00;99.90
13686;DHT22;6915;48.296;8.874;2022-10-22T00:31:17;12.00;99.90
13686;DHT22;6915;48.296;8.874;2022-10-22T00:33:45;12.00;99.90
13686;DHT22;6915;48.296;8.874;2022-10-22T00:36:14;11.90;99.90
13686;DHT22;6915;48.296;8.874;2022-10-22T00:38:41;11.80;99.90
13686;DHT22;6915;48.296;8.874;2022-10-22T00:41:08;11.80;99.90
13686;DHT22;6915;48.296;8.874;2022-10-22T00:43:53;11.80;99.90
13686;DHT22;6915;48.296;8.874;2022-10-22T00:46:20;11.90;99.90
13686;DHT22;6915;48.296;8.874;2022-10-22T00:48:47;11.90;99.90
13686;DHT22;6915;48.296;8.874;2022-10-22T00:51:16;11.90;99.90
13686;DHT22;6915;48.296;8.874;2022-10-22T00:53:47;11.90;99.90
13686;DHT22;6915;48.296;8.874;2022-10-22T00:56:16;11.80;99.90
13686;DHT22;6915;48.296;8.874;2022-10-22T00:58:46;11.90;99.90
13686;DHT22;6915;48.296;8.874;2022-10-22T01:01:17;11.90;99.90
13686;DHT22;6915;48.296;8.874;2022-10-22T01:03:46;11.90;99.90
13686;DHT22;6915;48.296;8.874;2022-10-22T01:06:20;12.10;99.90
13686;DHT22;6915;48.296;8.874;2022-10-22T01:08:55;12.00;99.90
13686;DHT22;6915;48.296;8.874;2022-10-22T01:11:28;12.00;99.90
13686;DHT22;6915;48.296;8.874;2022-10-22T01:14:08;12.00;99.90
13686;DHT22;6915;48.296;8.874;2022-10-22T01:16:43;12.00;99.90
13686;DHT22;6915;48.296;8.874;2022-10-22T01:19:29;11.90;99.90
13686;DHT22;6915;48.296;8.874;2022-10-22T01:22:05;11.90;99.90
13686;DHT22;6915;48.296;8.874;2022-10-22T01:24:41;11.90;99.90
13686;DHT22;6915;48.296;8.874;2022-10-22T01:27:29;11.90;99.90
13686;DHT22;6915;48.296;8.874;2022-10-22T01:30:01;11.90;99.90
13686;DHT22;6915;48.296;8.874;2022-10-22T01:32:32;11.90;99.90
13686;DHT22;6915;48.296;8.874;2022-10-22T01:35:04;11.90;99.90
13686;DHT22;6915;48.296;8.874;2022-10-22T01:37:36;11.80;99.90
13686;DHT22;6915;48.296;8.874;2022-10-22T01:40:05;11.70;99.90
13686;DHT22;6915;48.296;8.874;2022-10-22T01:42:33;11.80;99.90
13686;DHT22;6915;48.296;8.874;2022-10-22T01:45:01;11.70;99.90
13686;DHT22;6915;48.296;8.874;2022-10-22T01:47:41;11.70;99.90
13686;DHT22;6915;48.296;8.874;2022-10-22T01:50:23;11.60;99.90
13686;DHT22;6915;48.296;8.874;2022-10-22T01:53:05;11.80;99.90
13686;DHT22;6915;48.296;8.874;2022-10-22T01:55:41;11.80;99.90
13686;DHT22;6915;48.296;8.874;2022-10-22T01:58:18;11.80;99.90
13686;DHT22;6915;48.296;8.874;2022-10-22T02:00:54;11.70;99.90
13686;DHT22;6915;48.296;8.874;2022-10-22T02:03:27;11.70;99.90
13686;DHT22;6915;48.296;8.874;2022-10-22T02:05:58;11.70;99.90
13686;DHT22;6915;48.296;8.874;2022-10-22T02:08:29;11.70;99.90
13686;DHT22;6915;48.296;8.874;2022-10-22T02:10:57;11.70;99.90
13686;DHT22;6915;48.296;8.874;2022-10-22T02:13:26;11.60;99.90
13686;DHT22;6915;48.296;8.874;2022-10-22T02:15:56;11.60;99.90
13686;DHT22;6915;48.296;8.874;2022-10-22T02:18:27;11.60;99.90
13686;DHT22;6915;48.296;8.874;2022-10-22T02:20:55;11.70;99.90
13686;DHT22;6915;48.296;8.874;2022-10-22T02:23:23;11.70;99.90
13686;DHT22;6915;48.296;8.874;2022-10-22T02:25:54;11.90;99.90
13686;DHT22;6915;48.296;8.874;2022-10-22T02:28:28;11.80;99.90
13686;DHT22;6915;48.296;8.874;2022-10-22T02:31:04;11.80;99.90
13686;DHT22;6915;48.296;8.874;2022-10-22T02:33:34;11.80;99.90
13686;DHT22;6915;48.296;8.874;2022-10-22T02:36:03;11.80;99.90
13686;DHT22;6915;48.296;8.874;2022-10-22T02:38:31;11.80;99.90
13686;DHT22;6915;48.296;8.874;2022-10-22T02:41:00;11.60;99.90
13686;DHT22;6915;48.296;8.874;2022-10-22T02:43:28;11.80;99.90
13686;DHT22;6915;48.296;8.874;2022-10-22T02:45:55;11.80;99.90
13686;DHT22;6915;48.296;8.874;2022-10-22T02:48:23;11.80;99.90
13686;DHT22;6915;48.296;8.874;2022-10-22T02:50:50;11.80;99.90
13686;DHT22;6915;48.296;8.874;2022-10-22T02:53:17;11.90;99.90
13686;DHT22;6915;48.296;8.874;2022-10-22T02:55:44;11.80;99.90
13686;DHT22;6915;48.296;8.874;2022-10-22T02:58:11;12.00;99.90
13686;DHT22;6915;48.296;8.874;2022-10-22T03:00:38;11.90;99.90
13686;DHT22;6915;48.296;8.874;2022-10-22T03:03:05;11.90;99.90
13686;DHT22;6915;48.296;8.874;2022-10-22T03:05:34;11.90;99.90
13686;DHT22;6915;48.296;8.874;2022-10-22T03:08:00;11.80;99.90
13686;DHT22;6915;48.296;8.874;2022-10-22T03:10:27;12.00;99.90
13686;DHT22;6915;48.296;8.874;2022-10-22T03:12:54;11.90;99.90
13686;DHT22;6915;48.296;8.874;2022-10-22T03:15:21;11.80;99.90
13686;DHT22;6915;48.296;8.874;2022-10-22T03:17:48;11.90;99.90
13686;DHT22;6915;48.296;8.874;2022-10-22T03:20:15;11.80;99.90
13686;DHT22;6915;48.296;8.874;2022-10-22T03:22:44;11.80;99.90
13686;DHT22;6915;48.296;8.874;2022-10-22T03:25:12;11.80;99.90
13686;DHT22;6915;48.296;8.874;2022-10-22T03:27:40;11.70;99.90
13686;DHT22;6915;48.296;8.874;2022-10-22T03:30:09;11.70;99.90
13686;DHT22;6915;48.296;8.874;2022-10-22T03:32:36;11.70;99.90
13686;DHT22;6915;48.296;8.874;2022-10-22T03:35:03;11.70;99.90
13686;DHT22;6915;48.296;8.874;2022-10-22T03:37:31;11.70;99.90
13686;DHT22;6915;48.296;8.874;2022-10-22T03:40:01;11.70;99.90
13686;DHT22;6915;48.296;8.874;2022-10-22T03:42:28;11.60;99.90
13686;DHT22;6915;48.296;8.874;2022-10-22T03:44:55;11.70;99.90
13686;DHT22;6915;48.296;8.874;2022-10-22T03:47:22;11.70;99.90
13686;DHT22;6915;48.296;8.874;2022-10-22T03:49:50;11.80;99.90
13686;DHT22;6915;48.296;8.874;2022-10-22T03:52:17;11.70;99.90
13686;DHT22;6915;48.296;8.874;2022-10-22T03:54:44;11.70;99.90
13686;DHT22;6915;48.296;8.874;2022-10-22T03:57:12;11.70;99.90
13686;DHT22;6915;48.296;8.874;2022-10-22T03:59:41;11.70;99.90
13686;DHT22;6915;48.296;8.874;2022-10-22T04:02:08;11.70;99.90
13686;DHT22;6915;48.296;8.874;2022-10-22T04:04:36;11.70;99.90
13686;DHT22;6915;48.296;8.874;2022-10-22T04:07:04;11.70;99.90
13686;DHT22;6915;48.296;8.874;2022-10-22T04:09:31;11.70;99.90
13686;DHT22;6915;48.296;8.874;2022-10-22T04:11:58;11.70;99.90
13686;DHT22;6915;48.296;8.874;2022-10-22T04:14:27;11.70;99.90
13686;DHT22;6915;48.296;8.874;2022-10-22T04:16:54;11.70;99.90
13686;DHT22;6915;48.296;8.874;2022-10-22T04:19:21;11.70;99.90
13686;DHT22;6915;48.296;8.874;2022-10-22T04:21:48;11.70;99.90
13686;DHT22;6915;48.296;8.874;2022-10-22T04:24:15;11.60;99.90
13686;DHT22;6915;48.296;8.874;2022-10-22T04:26:42;11.60;99.90
13686;DHT22;6915;48.296;8.874;2022-10-22T04:29:09;11.50;99.90
13686;DHT22;6915;48.296;8.874;2022-10-22T04:31:37;11.40;99.90
13686;DHT22;6915;48.296;8.874;2022-10-22T04:34:04;11.40;99.90
13686;DHT22;6915;48.296;8.874;2022-10-22T04:36:32;11.30;99.90
13686;DHT22;6915;48.296;8.874;2022-10-22T04:39:00;11.30;99.90
13686;DHT22;6915;48.296;8.874;2022-10-22T04:41:29;11.30;99.90
13686;DHT22;6915;48.296;8.874;2022-10-22T04:43:57;11.20;99.90
13686;DHT22;6915;48.296;8.874;2022-10-22T04:46:25;11.20;99.90
13686;DHT22;6915;48.296;8.874;2022-10-22T04:48:53;11.20;99.90
13686;DHT22;6915;48.296;8.874;2022-10-22T04:51:22;11.20;99.90
13686;DHT22;6915;48.296;8.874;2022-10-22T04:53:49;11.20;99.90
13686;DHT22;6915;48.296;8.874;2022-10-22T04:56:18;11.20;99.90
13686;DHT22;6915;48.296;8.874;2022-10-22T04:58:46;11.20;99.90
13686;DHT22;6915;48.296;8.874;2022-10-22T05:01:15;11.20;99.90
13686;DHT22;6915;48.296;8.874;2022-10-22T05:03:43;11.20;99.90
13686;DHT22;6915;48.296;8.874;2022-10-22T05:06:12;11.30;99.90
13686;DHT22;6915;48.296;8.874;2022-10-22T05:08:39;11.30;99.90
13686;DHT22;6915;48.296;8.874;2022-10-22T05:11:12;11.30;99.90
13686;DHT22;6915;48.296;8.874;2022-10-22T05:13:39;11.30;99.90
13686;DHT22;6915;48.296;8.874;2022-10-22T05:16:06;11.30;99.90
13686;DHT22;6915;48.296;8.874;2022-10-22T05:18:34;11.40;99.90
13686;DHT22;6915;48.296;8.874;2022-10-22T05:21:02;11.50;99.90
13686;DHT22;6915;48.296;8.874;2022-10-22T05:23:30;11.60;99.90
13686;DHT22;6915;48.296;8.874;2022-10-22T05:26:00;11.60;99.90
13686;DHT22;6915;48.296;8.874;2022-10-22T05:28:28;11.70;99.90
13686;DHT22;6915;48.296;8.874;2022-10-22T05:30:56;11.70;99.90
13686;DHT22;6915;48.296;8.874;2022-10-22T05:33:23;11.80;99.90
13686;DHT22;6915;48.296;8.874;2022-10-22T05:35:51;11.70;99.90
13686;DHT22;6915;48.296;8.874;2022-10-22T05:38:19;11.70;99.90
13686;DHT22;6915;48.296;8.874;2022-10-22T05:40:47;11.70;99.90
13686;DHT22;6915;48.296;8.874;2022-10-22T05:43:14;11.80;99.90
13686;DHT22;6915;48.296;8.874;2022-10-22T05:45:41;11.80;99.90
13686;DHT22;6915;48.296;8.874;2022-10-22T05:48:08;11.70;99.90
13686;DHT22;6915;48.296;8.874;2022-10-22T05:50:35;11.70;99.90
13686;DHT22;6915;48.296;8.874;2022-10-22T05:53:03;11.70;99.90
13686;DHT22;6915;48.296;8.874;2022-10-22T05:58:01;11.90;99.90
13686;DHT22;6915;48.296;8.874;2022-10-22T06:00:28;11.90;99.90
13686;DHT22;6915;48.296;8.874;2022-10-22T06:02:55;12.00;99.90
13686;DHT22;6915;48.296;8.874;2022-10-22T06:05:21;12.00;99.90
13686;DHT22;6915;48.296;8.874;2022-10-22T06:07:48;11.90;99.90
13686;DHT22;6915;48.296;8.874;2022-10-22T06:10:18;11.90;99.90
13686;DHT22;6915;48.296;8.874;2022-10-22T06:12:46;12.00;99.90
13686;DHT22;6915;48.296;8.874;2022-10-22T06:15:16;12.00;99.90
13686;DHT22;6915;48.296;8.874;2022-10-22T06:17:43;12.00;99.90
13686;DHT22;6915;48.296;8.874;2022-10-22T06:20:11;12.10;99.90
13686;DHT22;6915;48.296;8.874;2022-10-22T06:22:38;12.10;99.90
13686;DHT22;6915;48.296;8.874;2022-10-22T06:25:06;12.10;99.90
13686;DHT22;6915;48.296;8.874;2022-10-22T06:27:33;12.10;99.90
13686;DHT22;6915;48.296;8.874;2022-10-22T06:30:00;12.20;99.90
13686;DHT22;6915;48.296;8.874;2022-10-22T06:32:29;12.20;99.90
13686;DHT22;6915;48.296;8.874;2022-10-22T06:34:56;12.20;99.90
13686;DHT22;6915;48.296;8.874;2022-10-22T06:37:23;12.20;99.90
13686;DHT22;6915;48.296;8.874;2022-10-22T06:39:50;12.30;99.90
13686;DHT22;6915;48.296;8.874;2022-10-22T06:42:17;12.30;99.90
13686;DHT22;6915;48.296;8.874;2022-10-22T06:44:43;12.40;99.90
13686;DHT22;6915;48.296;8.874;2022-10-22T06:47:10;12.40;99.90
13686;DHT22;6915;48.296;8.874;2022-10-22T06:49:39;12.40;99.90
13686;DHT22;6915;48.296;8.874;2022-10-22T06:52:06;12.50;99.90
13686;DHT22;6915;48.296;8.874;2022-10-22T06:54:32;12.50;99.90
13686;DHT22;6915;48.296;8.874;2022-10-22T06:56:59;12.50;99.90
13686;DHT22;6915;48.296;8.874;2022-10-22T06:59:26;12.50;99.90
13686;DHT22;6915;48.296;8.874;2022-10-22T07:01:53;12.60;99.90
13686;DHT22;6915;48.296;8.874;2022-10-22T07:04:20;12.60;99.90
13686;DHT22;6915;48.296;8.874;2022-10-22T07:06:48;12.70;99.90
13686;DHT22;6915;48.296;8.874;2022-10-22T07:09:15;12.80;99.90
13686;DHT22;6915;48.296;8.874;2022-10-22T07:11:44;12.80;99.90
13686;DHT22;6915;48.296;8.874;2022-10-22T07:14:20;12.80;99.90
13686;DHT22;6915;48.296;8.874;2022-10-22T07:17:09;12.90;99.90
13686;DHT22;6915;48.296;8.874;2022-10-22T07:19:59;12.90;99.90
13686;DHT22;6915;48.296;8.874;2022-10-22T07:22:40;13.00;99.90
13686;DHT22;6915;48.296;8.874;2022-10-22T07:25:43;13.20;99.90
13686;DHT22;6915;48.296;8.874;2022-10-22T07:28:47;13.50;99.90
13686;DHT22;6915;48.296;8.874;2022-10-22T07:35:07;13.60;99.90
13686;DHT22;6915;48.296;8.874;2022-10-22T07:37:56;13.90;99.90
13686;DHT22;6915;48.296;8.874;2022-10-22T07:41:17;14.00;99.90
13686;DHT22;6915;48.296;8.874;2022-10-22T07:43:52;14.10;99.90
13686;DHT22;6915;48.296;8.874;2022-10-22T07:46:19;14.20;99.90
13686;DHT22;6915;48.296;8.874;2022-10-22T07:48:47;14.20;99.90
13686;DHT22;6915;48.296;8.874;2022-10-22T07:51:17;14.20;99.90
13686;DHT22;6915;48.296;8.874;2022-10-22T07:53:45;14.20;99.90
13686;DHT22;6915;48.296;8.874;2022-10-22T07:56:19;14.30;99.90
13686;DHT22;6915;48.296;8.874;2022-10-22T07:59:00;14.50;99.90
13686;DHT22;6915;48.296;8.874;2022-10-22T08:01:48;14.60;99.90
13686;DHT22;6915;48.296;8.874;2022-10-22T08:04:17;14.60;99.90
13686;DHT22;6915;48.296;8.874;2022-10-22T08:06:44;14.60;99.90
13686;DHT22;6915;48.296;8.874;2022-10-22T08:09:38;14.60;99.90
13686;DHT22;6915;48.296;8.874;2022-10-22T08:12:25;14.70;99.90
13686;DHT22;6915;48.296;8.874;2022-10-22T08:19:13;14.80;99.90
13686;DHT22;6915;48.296;8.874;2022-10-22T08:21:44;14.90;99.90
13686;DHT22;6915;48.296;8.874;2022-10-22T08:24:11;15.10;99.90
13686;DHT22;6915;48.296;8.874;2022-10-22T08:26:40;15.10;99.90
13686;DHT22;6915;48.296;8.874;2022-10-22T08:29:08;15.20;99.90
13686;DHT22;6915;48.296;8.874;2022-10-22T08:31:35;15.20;99.90
13686;DHT22;6915;48.296;8.874;2022-10-22T08:34:04;15.30;99.90
13686;DHT22;6915;48.296;8.874;2022-10-22T08:36:37;15.30;99.90
13686;DHT22;6915;48.296;8.874;2022-10-22T08:39:05;15.40;99.90
13686;DHT22;6915;48.296;8.874;2022-10-22T08:41:38;15.40;99.90
13686;DHT22;6915;48.296;8.874;2022-10-22T08:47:17;15.60;99.90
13686;DHT22;6915;48.296;8.874;2022-10-22T08:49:46;15.60;99.90
13686;DHT22;6915;48.296;8.874;2022-10-22T08:52:16;15.60;99.90
13686;DHT22;6915;48.296;8.874;2022-10-22T08:54:49;15.60;99.90
13686;DHT22;6915;48.296;8.874;2022-10-22T08:57:37;15.70;99.90
13686;DHT22;6915;48.296;8.874;2022-10-22T09:00:10;15.70;99.90
13686;DHT22;6915;48.296;8.874;2022-10-22T09:02:51;15.70;99.90
13686;DHT22;6915;48.296;8.874;2022-10-22T09:05:33;15.90;99.90
13686;DHT22;6915;48.296;8.874;2022-10-22T09:08:04;15.90;99.90
13686;DHT22;6915;48.296;8.874;2022-10-22T09:10:35;16.00;99.90
13686;DHT22;6915;48.296;8.874;2022-10-22T09:13:02;16.00;99.90
13686;DHT22;6915;48.296;8.874;2022-10-22T09:16:04;16.00;99.90
13686;DHT22;6915;48.296;8.874;2022-10-22T09:19:02;16.10;99.90
13686;DHT22;6915;48.296;8.874;2022-10-22T09:22:15;16.20;99.90
13686;DHT22;6915;48.296;8.874;2022-10-22T09:24:54;16.40;99.90
13686;DHT22;6915;48.296;8.874;2022-10-22T09:27:53;16.40;99.90
13686;DHT22;6915;48.296;8.874;2022-10-22T09:30:38;16.50;99.90
13686;DHT22;6915;48.296;8.874;2022-10-22T09:34:00;16.60;99.90
13686;DHT22;6915;48.296;8.874;2022-10-22T09:36:42;16.60;99.90
13686;DHT22;6915;48.296;8.874;2022-10-22T09:39:51;16.80;99.90
13686;DHT22;6915;48.296;8.874;2022-10-22T09:43:07;16.90;99.90
13686;DHT22;6915;48.296;8.874;2022-10-22T09:48:50;17.20;99.90
13686;DHT22;6915;48.296;8.874;2022-10-22T09:51:23;17.30;60.90
13686;DHT22;6915;48.296;8.874;2022-10-22T10:00:47;17.70;99.90
13686;DHT22;6915;48.296;8.874;2022-10-22T10:03:44;17.90;78.80
13686;DHT22;6915;48.296;8.874;2022-10-22T10:07:01;18.00;9.50
13686;DHT22;6915;48.296;8.874;2022-10-22T10:23:39;18.10;1.00
13686;DHT22;6915;48.296;8.874;2022-10-22T10:30:22;18.20;1.00
13686;DHT22;6915;48.296;8.874;2022-10-22T10:33:21;18.50;99.90
13686;DHT22;6915;48.296;8.874;2022-10-22T10:36:26;18.70;1.00
13686;DHT22;6915;48.296;8.874;2022-10-22T10:39:26;18.80;1.00
13686;DHT22;6915;48.296;8.874;2022-10-22T10:42:02;19.00;1.00
13686;DHT22;6915;48.296;8.874;2022-10-22T10:44:44;19.20;74.80
13686;DHT22;6915;48.296;8.874;2022-10-22T10:47:32;19.40;99.90
13686;DHT22;6915;48.296;8.874;2022-10-22T10:50:16;19.40;1.00
13686;DHT22;6915;48.296;8.874;2022-10-22T10:52:49;19.20;1.00
13686;DHT22;6915;48.296;8.874;2022-10-22T10:55:24;19.10;1.00
13686;DHT22;6915;48.296;8.874;2022-10-22T10:58:01;19.20;99.90
13686;DHT22;6915;48.296;8.874;2022-10-22T11:00:30;19.30;1.00
13686;DHT22;6915;48.296;8.874;2022-10-22T11:03:27;19.40;1.00
13686;DHT22;6915;48.296;8.874;2022-10-22T11:05:58;19.60;99.90
13686;DHT22;6915;48.296;8.874;2022-10-22T11:08:28;19.50;99.90
13686;DHT22;6915;48.296;8.874;2022-10-22T11:11:00;19.40;99.90
13686;DHT22;6915;48.296;8.874;2022-10-22T11:13:30;19.00;99.90
13686;DHT22;6915;48.296;8.874;2022-10-22T11:16:03;18.60;1.00
13686;DHT22;6915;48.296;8.874;2022-10-22T11:18:36;18.20;99.90
13686;DHT22;6915;48.296;8.874;2022-10-22T11:21:13;17.90;99.90
13686;DHT22;6915;48.296;8.874;2022-10-22T11:23:45;17.80;99.90
13686;DHT22;6915;48.296;8.874;2022-10-22T11:26:22;17.70;1.00
13686;DHT22;6915;48.296;8.874;2022-10-22T11:28:52;18.10;1.00
13686;DHT22;6915;48.296;8.874;2022-10-22T11:31:23;18.40;1.00
13686;DHT22;6915;48.296;8.874;2022-10-22T11:33:57;18.80;99.90
13686;DHT22;6915;48.296;8.874;2022-10-22T11:36:27;19.10;99.90
13686;DHT22;6915;48.296;8.874;2022-10-22T11:38:55;19.20;1.00
13686;DHT22;6915;48.296;8.874;2022-10-22T11:41:27;19.10;1.00
13686;DHT22;6915;48.296;8.874;2022-10-22T11:44:07;19.20;99.90
13686;DHT22;6915;48.296;8.874;2022-10-22T11:46:45;19.20;99.90
13686;DHT22;6915;48.296;8.874;2022-10-22T11:49:23;19.10;1.00
13686;DHT22;6915;48.296;8.874;2022-10-22T11:51:50;19.20;1.00
13686;DHT22;6915;48.296;8.874;2022-10-22T11:54:37;19.20;1.00
13686;DHT22;6915;48.296;8.874;2022-10-22T11:57:21;19.30;99.90
13686;DHT22;6915;48.296;8.874;2022-10-22T11:59:52;19.40;1.00
13686;DHT22;6915;48.296;8.874;2022-10-22T12:02:36;19.40;1.00
13686;DHT22;6915;48.296;8.874;2022-10-22T12:08:31;19.50;99.90
13686;DHT22;6915;48.296;8.874;2022-10-22T12:11:11;19.50;99.90
13686;DHT22;6915;48.296;8.874;2022-10-22T12:14:15;19.60;99.90
13686;DHT22;6915;48.296;8.874;2022-10-22T12:16:45;19.70;1.00
13686;DHT22;6915;48.296;8.874;2022-10-22T12:19:14;19.80;53.90
13686;DHT22;6915;48.296;8.874;2022-10-22T12:21:44;19.90;1.00
13686;DHT22;6915;48.296;8.874;2022-10-22T12:24:14;19.70;32.70
13686;DHT22;6915;48.296;8.874;2022-10-22T12:26:42;19.50;1.00
13686;DHT22;6915;48.296;8.874;2022-10-22T12:29:12;19.50;1.00
13686;DHT22;6915;48.296;8.874;2022-10-22T12:31:42;19.60;25.60
13686;DHT22;6915;48.296;8.874;2022-10-22T12:34:13;19.50;1.00
13686;DHT22;6915;48.296;8.874;2022-10-22T12:36:41;19.50;1.00
13686;DHT22;6915;48.296;8.874;2022-10-22T12:39:14;19.50;99.90
13686;DHT22;6915;48.296;8.874;2022-10-22T12:41:41;19.60;1.00
13686;DHT22;6915;48.296;8.874;2022-10-22T12:44:11;19.70;1.00
13686;DHT22;6915;48.296;8.874;2022-10-22T12:46:41;19.50;1.00
13686;DHT22;6915;48.296;8.874;2022-10-22T12:49:14;19.20;1.00
13686;DHT22;6915;48.296;8.874;2022-10-22T12:51:43;19.20;1.00
13686;DHT22;6915;48.296;8.874;2022-10-22T12:54:25;19.40;1.00
13686;DHT22;6915;48.296;8.874;2022-10-22T12:56:53;19.50;1.00
13686;DHT22;6915;48.296;8.874;2022-10-22T12:59:23;19.70;1.00
13686;DHT22;6915;48.296;8.874;2022-10-22T13:01:53;19.90;1.00
13686;DHT22;6915;48.296;8.874;2022-10-22T13:04:35;19.90;1.00
13686;DHT22;6915;48.296;8.874;2022-10-22T13:07:05;20.00;1.00
13686;DHT22;6915;48.296;8.874;2022-10-22T13:09:40;20.00;99.90
13686;DHT22;6915;48.296;8.874;2022-10-22T13:12:09;19.90;99.90
13686;DHT22;6915;48.296;8.874;2022-10-22T13:14:41;19.80;99.90
13686;DHT22;6915;48.296;8.874;2022-10-22T13:17:12;19.80;1.00
13686;DHT22;6915;48.296;8.874;2022-10-22T13:19:46;19.90;1.00
13686;DHT22;6915;48.296;8.874;2022-10-22T13:22:31;19.90;99.90
13686;DHT22;6915;48.296;8.874;2022-10-22T13:25:14;19.90;75.70
13686;DHT22;6915;48.296;8.874;2022-10-22T13:27:45;19.90;1.00
13686;DHT22;6915;48.296;8.874;2022-10-22T13:30:18;20.10;20.70
13686;DHT22;6915;48.296;8.874;2022-10-22T13:32:51;20.10;1.00
13686;DHT22;6915;48.296;8.874;2022-10-22T13:35:22;20.10;33.80
13686;DHT22;6915;48.296;8.874;2022-10-22T13:37:49;20.10;1.00
13686;DHT22;6915;48.296;8.874;2022-10-22T13:40:17;20.10;99.90
13686;DHT22;6915;48.296;8.874;2022-10-22T13:42:44;20.10;32.50
13686;DHT22;6915;48.296;8.874;2022-10-22T13:45:11;20.10;1.00
13686;DHT22;6915;48.296;8.874;2022-10-22T13:47:39;20.00;1.00
13686;DHT22;6915;48.296;8.874;2022-10-22T13:50:12;20.20;99.90
13686;DHT22;6915;48.296;8.874;2022-10-22T13:52:42;20.20;1.00
13686;DHT22;6915;48.296;8.874;2022-10-22T13:55:15;20.20;1.00
13686;DHT22;6915;48.296;8.874;2022-10-22T13:57:42;20.10;20.20
13686;DHT22;6915;48.296;8.874;2022-10-22T14:00:14;20.20;99.90
13686;DHT22;6915;48.296;8.874;2022-10-22T14:02:42;20.20;99.90
13686;DHT22;6915;48.296;8.874;2022-10-22T14:05:10;20.30;1.00
13686;DHT22;6915;48.296;8.874;2022-10-22T14:07:38;20.40;1.00
13686;DHT22;6915;48.296;8.874;2022-10-22T14:10:16;20.50;99.90
13686;DHT22;6915;48.296;8.874;2022-10-22T14:12:44;20.50;1.00
13686;DHT22;6915;48.296;8.874;2022-10-22T14:15:12;20.40;99.90
13686;DHT22;6915;48.296;8.874;2022-10-22T14:17:42;20.30;99.90
13686;DHT22;6915;48.296;8.874;2022-10-22T14:20:16;20.30;1.00
13686;DHT22;6915;48.296;8.874;2022-10-22T14:22:45;20.40;99.90
13686;DHT22;6915;48.296;8.874;2022-10-22T14:25:14;20.40;99.90
13686;DHT22;6915;48.296;8.874;2022-10-22T14:27:41;20.50;40.80
13686;DHT22;6915;48.296;8.874;2022-10-22T14:30:11;20.50;58.40
13686;DHT22;6915;48.296;8.874;2022-10-22T14:32:39;20.30;1.00
13686;DHT22;6915;48.296;8.874;2022-10-22T14:35:08;20.40;5.80
13686;DHT22;6915;48.296;8.874;2022-10-22T14:37:36;20.30;93.20
13686;DHT22;6915;48.296;8.874;2022-10-22T14:40:04;20.20;99.90
13686;DHT22;6915;48.296;8.874;2022-10-22T14:42:32;20.20;1.00
13686;DHT22;6915;48.296;8.874;2022-10-22T14:45:00;20.30;14.80
13686;DHT22;6915;48.296;8.874;2022-10-22T14:47:30;20.20;1.00
13686;DHT22;6915;48.296;8.874;2022-10-22T14:49:57;20.20;1.00
13686;DHT22;6915;48.296;8.874;2022-10-22T14:52:26;20.00;1.00
13686;DHT22;6915;48.296;8.874;2022-10-22T14:54:54;19.90;99.90
13686;DHT22;6915;48.296;8.874;2022-10-22T14:57:21;19.90;10.40
13686;DHT22;6915;48.296;8.874;2022-10-22T14:59:48;19.80;67.90
13686;DHT22;6915;48.296;8.874;2022-10-22T15:02:20;19.80;1.00
13686;DHT22;6915;48.296;8.874;2022-10-22T15:04:47;19.80;1.00
13686;DHT22;6915;48.296;8.874;2022-10-22T15:07:14;19.90;1.00
13686;DHT22;6915;48.296;8.874;2022-10-22T15:09:42;19.80;1.00
13686;DHT22;6915;48.296;8.874;2022-10-22T15:12:10;19.70;1.00
13686;DHT22;6915;48.296;8.874;2022-10-22T15:14:37;19.60;99.90
13686;DHT22;6915;48.296;8.874;2022-10-22T15:17:04;19.60;1.00
13686;DHT22;6915;48.296;8.874;2022-10-22T15:19:31;19.50;1.00
13686;DHT22;6915;48.296;8.874;2022-10-22T15:21:58;19.30;1.00
13686;DHT22;6915;48.296;8.874;2022-10-22T15:24:25;19.20;1.00
13686;DHT22;6915;48.296;8.874;2022-10-22T15:26:52;19.30;55.90
13686;DHT22;6915;48.296;8.874;2022-10-22T15:29:20;19.00;1.00
13686;DHT22;6915;48.296;8.874;2022-10-22T15:31:49;18.70;99.90
13686;DHT22;6915;48.296;8.874;2022-10-22T15:34:21;18.30;1.00
13686;DHT22;6915;48.296;8.874;2022-10-22T15:36:49;18.20;1.00
13686;DHT22;6915;48.296;8.874;2022-10-22T15:39:16;18.10;1.00
13686;DHT22;6915;48.296;8.874;2022-10-22T15:41:43;18.00;1.00
13686;DHT22;6915;48.296;8.874;2022-10-22T15:44:14;17.80;1.00
13686;DHT22;6915;48.296;8.874;2022-10-22T15:46:43;17.70;1.00
13686;DHT22;6915;48.296;8.874;2022-10-22T15:49:10;17.60;99.90
13686;DHT22;6915;48.296;8.874;2022-10-22T15:51:37;17.50;99.90
13686;DHT22;6915;48.296;8.874;2022-10-22T15:54:04;17.40;99.90
13686;DHT22;6915;48.296;8.874;2022-10-22T15:56:31;17.40;1.00
13686;DHT22;6915;48.296;8.874;2022-10-22T15:58:59;17.20;1.00
13686;DHT22;6915;48.296;8.874;2022-10-22T16:01:27;17.10;1.00
13686;DHT22;6915;48.296;8.874;2022-10-22T16:03:55;16.90;1.00
13686;DHT22;6915;48.296;8.874;2022-10-22T16:06:27;16.80;1.00
13686;DHT22;6915;48.296;8.874;2022-10-22T16:08:56;16.80;1.00
13686;DHT22;6915;48.296;8.874;2022-10-22T16:11:24;16.70;1.00
13686;DHT22;6915;48.296;8.874;2022-10-22T16:13:55;16.70;1.00
13686;DHT22;6915;48.296;8.874;2022-10-22T16:16:22;16.50;1.00
13686;DHT22;6915;48.296;8.874;2022-10-22T16:18:50;16.20;99.90
13686;DHT22;6915;48.296;8.874;2022-10-22T16:21:19;16.00;99.90
13686;DHT22;6915;48.296;8.874;2022-10-22T16:23:47;15.80;99.90
13686;DHT22;6915;48.296;8.874;2022-10-22T16:26:15;15.60;99.90
13686;DHT22;6915;48.296;8.874;2022-10-22T16:28:43;15.40;99.90
13686;DHT22;6915;48.296;8.874;2022-10-22T16:31:12;15.30;99.90
13686;DHT22;6915;48.296;8.874;2022-10-22T16:33:40;15.10;99.90
13686;DHT22;6915;48.296;8.874;2022-10-22T16:36:08;15.00;99.90
13686;DHT22;6915;48.296;8.874;2022-10-22T16:38:37;14.90;99.90
13686;DHT22;6915;48.296;8.874;2022-10-22T16:41:08;14.80;99.90
13686;DHT22;6915;48.296;8.874;2022-10-22T16:43:35;14.60;99.90
13686;DHT22;6915;48.296;8.874;2022-10-22T16:46:02;14.40;99.90
13686;DHT22;6915;48.296;8.874;2022-10-22T16:48:29;14.40;99.90
13686;DHT22;6915;48.296;8.874;2022-10-22T16:50:57;14.40;99.90
13686;DHT22;6915;48.296;8.874;2022-10-22T16:53:24;14.30;99.90
13686;DHT22;6915;48.296;8.874;2022-10-22T16:55:52;14.20;99.90
13686;DHT22;6915;48.296;8.874;2022-10-22T16:58:19;14.00;99.90
13686;DHT22;6915;48.296;8.874;2022-10-22T17:00:46;13.90;99.90
13686;DHT22;6915;48.296;8.874;2022-10-22T17:03:13;13.80;99.90
13686;DHT22;6915;48.296;8.874;2022-10-22T17:05:40;13.60;99.90